Time;durP1;ratioP1;P1;durP2;ratioP2;P2;SDS_P1;SDS_P2;PMS_P1;PMS_P2;Temp;Humidity;BMP_temperature;BMP_pressure;BME280_temperature;BME280_humidity;BME280_pressure;Samples;Min_cycle;Max_cycle;Signal;HPM_P1;HPM_P2
2023/03/04 00:01:49;;;;;;;;;;;;;;;8.84;64.30;98882.38;5001889;28;20378;-84
2023/03/04 00:04:15;;;;;;;;;;;;;;;8.82;64.34;98877.28;5018380;28;20034;-85
2023/03/04 00:06:40;;;;;;;;;;;;;;;8.81;64.39;98872.16;5018285;28;20490;-84
2023/03/04 00:09:05;;;;;;;;;;;;;;;8.79;64.08;98869.66;5002960;28;19916;-84
2023/03/04 00:11:31;;;;;;;;;;;;;;;8.77;64.37;98865.50;5040710;28;19917;-84
2023/03/04 00:13:56;;;;;;;;;;;;;;;8.75;64.03;98857.78;5018309;28;20312;-85
2023/03/04 00:16:21;;;;;;;;;;;;;;;8.72;64.23;98857.16;5018000;28;20295;-85
2023/03/04 00:18:47;;;;;;;;;;;;;;;8.69;64.39;98853.81;5001403;28;20015;-85
2023/03/04 00:21:12;;;;;;;;;;;;;;;8.68;64.17;98854.75;5035642;28;19917;-86
2023/03/04 00:23:40;;;;;;;;;;;;;;;8.65;64.05;98859.31;5018021;28;20339;-87
2023/03/04 00:26:06;;;;;;;;;;;;;;;8.63;63.93;98863.78;5035619;28;20016;-86
2023/03/04 00:28:32;;;;;;;;;;;;;;;8.61;64.18;98863.06;5035822;28;20454;-86
2023/03/04 00:30:57;;;;;;;;;;;;;;;8.58;63.86;98865.88;5035363;28;19956;-84
2023/03/04 00:33:22;;;;;;;;;;;;;;;8.56;64.21;98867.75;5035477;28;20312;-85
2023/03/04 00:35:47;;;;;;;;;;;;;;;8.54;64.10;98867.84;5035426;28;19918;-85
2023/03/04 00:38:13;;;;;;;;;;;;;;;8.51;63.92;98861.06;5017374;28;19921;-85
2023/03/04 00:40:38;;;;;;;;;;;;;;;8.48;64.28;98858.66;5034931;28;19925;-86
2023/03/04 00:43:03;;;;;;;;;;;;;;;8.48;63.96;98855.25;5035310;28;19918;-85
2023/03/04 00:45:29;;;;;;;;;;;;;;;8.46;64.10;98849.28;5017409;28;19925;-86
2023/03/04 00:47:54;;;;;;;;;;;;;;;8.43;64.22;98849.44;5017923;28;19917;-85
2023/03/04 00:50:19;;;;;;;;;;;;;;;8.41;63.90;98844.38;5035331;28;19929;-86
2023/03/04 00:52:45;;;;;;;;;;;;;;;8.38;63.85;98844.59;5017155;28;20331;-85
2023/03/04 00:55:10;;;;;;;;;;;;;;;8.36;64.28;98841.22;5017539;28;20373;-85
2023/03/04 00:57:35;;;;;;;;;;;;;;;8.34;64.05;98843.09;5035498;28;20376;-86
2023/03/04 01:00:00;;;;;;;;;;;;;;;8.34;63.95;98843.09;5018376;28;19965;-86
2023/03/04 01:02:26;;;;;;;;;;;;;;;8.32;64.07;98844.97;5017426;28;20016;-85
2023/03/04 01:04:51;;;;;;;;;;;;;;;8.31;64.18;98838.91;5017138;28;19979;-86
2023/03/04 01:07:16;;;;;;;;;;;;;;;8.31;63.87;98841.53;5017193;28;20369;-86
2023/03/04 01:09:42;;;;;;;;;;;;;;;8.30;64.05;98841.63;5034558;28;19967;-87
2023/03/04 01:12:07;;;;;;;;;;;;;;;8.29;64.23;98842.56;5000462;28;20399;-86
2023/03/04 01:14:32;;;;;;;;;;;;;;;8.29;64.05;98847.78;5034632;28;19917;-86
2023/03/04 01:16:58;;;;;;;;;;;;;;;8.28;64.03;98848.69;5016999;28;19917;-86
2023/03/04 01:19:23;;;;;;;;;;;;;;;8.26;64.08;98843.59;5017046;28;20300;-85
2023/03/04 01:21:48;;;;;;;;;;;;;;;8.27;64.35;98857.44;5016302;28;19917;-86
2023/03/04 01:24:14;;;;;;;;;;;;;;;8.26;64.22;98848.81;5017197;28;19918;-86
2023/03/04 01:26:39;;;;;;;;;;;;;;;8.27;63.89;98852.22;5034690;28;19921;-86
2023/03/04 01:29:04;;;;;;;;;;;;;;;8.25;64.16;98854.09;5034457;28;19975;-84
2023/03/04 01:31:29;;;;;;;;;;;;;;;8.24;64.11;98858.47;5016832;28;19925;-85
2023/03/04 01:33:55;;;;;;;;;;;;;;;8.25;64.25;98860.13;5016570;28;19960;-85
2023/03/04 01:36:20;;;;;;;;;;;;;;;8.24;64.26;98866.28;5034250;28;20016;-86
2023/03/04 01:38:45;;;;;;;;;;;;;;;8.23;64.17;98858.56;5034685;28;19944;-86
2023/03/04 01:41:11;;;;;;;;;;;;;;;8.23;64.19;98858.56;5016316;28;19921;-85
2023/03/04 01:43:36;;;;;;;;;;;;;;;8.23;64.23;98861.19;5000239;28;19917;-86
2023/03/04 01:46:02;;;;;;;;;;;;;;;8.23;64.08;98855.97;5016544;28;19917;-86
2023/03/04 01:48:32;;;;;;;;;;;;;;;8.22;64.12;98854.31;5000003;28;20449;-86
2023/03/04 01:51:01;;;;;;;;;;;;;;;8.22;63.70;98856.91;5016140;28;19921;-86
2023/03/04 01:53:27;;;;;;;;;;;;;;;8.20;63.86;98862.19;4999974;28;19917;-85
2023/03/04 01:55:56;;;;;;;;;;;;;;;8.20;63.81;98862.19;5016786;28;20327;-85
2023/03/04 01:58:28;;;;;;;;;;;;;;;8.22;63.68;98857.72;5016245;28;19963;-85
2023/03/04 02:00:54;;;;;;;;;;;;;;;8.22;63.95;98859.50;5016908;28;19967;-86
2023/03/04 02:03:19;;;;;;;;;;;;;;;8.21;64.04;98856.06;5017135;28;20383;-85
2023/03/04 02:05:45;;;;;;;;;;;;;;;8.21;64.04;98855.25;5026510;28;19917;-85
2023/03/04 02:08:11;;;;;;;;;;;;;;;8.22;64.32;98856.91;5016183;28;19971;-85
2023/03/04 02:10:36;;;;;;;;;;;;;;;8.22;64.27;98857.72;5015980;28;19921;-86
2023/03/04 02:13:02;;;;;;;;;;;;;;;8.24;64.50;98862.81;5016132;28;20442;-85
2023/03/04 02:15:28;;;;;;;;;;;;;;;8.26;64.33;98856.59;5033881;28;20019;-86
2023/03/04 02:17:53;;;;;;;;;;;;;;;8.27;64.35;98866.09;5015798;28;19917;-85
2023/03/04 02:20:24;;;;;;;;;;;;;;;8.29;64.04;98863.38;4999901;28;20007;-86
2023/03/04 02:22:52;;;;;;;;;;;;;;;8.31;64.30;98861.50;5035478;28;20072;-85
2023/03/04 02:25:21;;;;;;;;;;;;;;;8.31;64.28;98859.72;5033426;28;19964;-85
2023/03/04 02:27:46;;;;;;;;;;;;;;;8.32;64.02;98864.00;5015651;28;19967;-86
2023/03/04 02:30:17;;;;;;;;;;;;;;;8.34;64.18;98869.13;5015679;28;19952;-85
2023/03/04 02:32:43;;;;;;;;;;;;;;;8.36;64.09;98871.63;5016041;28;19921;-86
2023/03/04 02:35:12;;;;;;;;;;;;;;;8.36;64.21;98872.44;4999009;28;19968;-86
2023/03/04 02:37:38;;;;;;;;;;;;;;;8.38;64.39;98872.34;4998947;28;20423;-84
2023/03/04 02:40:03;;;;;;;;;;;;;;;8.39;64.42;98867.03;5033095;28;19925;-84
2023/03/04 02:42:28;;;;;;;;;;;;;;;8.39;64.33;98867.03;5032983;28;19924;-84
2023/03/04 02:45:00;;;;;;;;;;;;;;;8.40;64.27;98873.91;5032887;28;19965;-84
2023/03/04 02:47:25;;;;;;;;;;;;;;;8.40;64.04;98868.72;5015127;28;19936;-85
2023/03/04 02:49:50;;;;;;;;;;;;;;;8.42;64.23;98864.25;5015430;28;19917;-86
2023/03/04 02:52:20;;;;;;;;;;;;;;;8.43;63.94;98860.75;5015644;28;19921;-85
2023/03/04 02:54:45;;;;;;;;;;;;;;;8.42;64.26;98859.03;5015778;28;19923;-86
2023/03/04 02:57:11;;;;;;;;;;;;;;;8.44;64.38;98858.97;5032810;28;20303;-86
2023/03/04 02:59:36;;;;;;;;;;;;;;;8.44;64.10;98857.19;5032767;28;19917;-86
2023/03/04 03:02:01;;;;;;;;;;;;;;;8.44;64.04;98857.19;5032837;28;19917;-86
2023/03/04 03:04:27;;;;;;;;;;;;;;;8.46;64.23;98857.09;5015726;28;19917;-85
2023/03/04 03:06:52;;;;;;;;;;;;;;;8.46;63.85;98854.50;5023336;28;20383;-85
2023/03/04 03:09:18;;;;;;;;;;;;;;;8.46;64.02;98850.16;5041409;28;19917;-87
2023/03/04 03:11:43;;;;;;;;;;;;;;;8.47;64.07;98849.19;5017788;28;20075;-86
2023/03/04 03:14:08;;;;;;;;;;;;;;;8.47;63.98;98848.38;5033095;28;20444;-85
2023/03/04 03:16:34;;;;;;;;;;;;;;;8.47;64.03;98846.59;5033243;28;19971;-84
2023/03/04 03:18:59;;;;;;;;;;;;;;;8.49;64.05;98846.47;5033159;28;19971;-85
2023/03/04 03:21:24;;;;;;;;;;;;;;;8.49;63.83;98857.75;5014933;28;19921;-85
2023/03/04 03:23:49;;;;;;;;;;;;;;;8.50;64.09;98861.16;5015186;28;20316;-84
2023/03/04 03:26:15;;;;;;;;;;;;;;;8.50;63.96;98863.78;5033057;28;20391;-85
2023/03/04 03:28:40;;;;;;;;;;;;;;;8.50;64.12;98862.00;5032514;28;19924;-83
2023/03/04 03:31:05;;;;;;;;;;;;;;;8.51;63.99;98865.44;5033071;28;19921;-83
2023/03/04 03:33:31;;;;;;;;;;;;;;;8.51;64.05;98868.88;5015286;28;19917;-84
2023/03/04 03:35:56;;;;;;;;;;;;;;;8.53;63.86;98873.16;5032812;28;19917;-84
2023/03/04 03:38:21;;;;;;;;;;;;;;;8.54;63.78;98880.00;5032851;28;19917;-84
2023/03/04 03:40:47;;;;;;;;;;;;;;;8.54;63.95;98875.66;5033115;28;20292;-83
2023/03/04 03:43:12;;;;;;;;;;;;;;;8.53;63.97;98881.78;5033302;28;19917;-83
2023/03/04 03:45:37;;;;;;;;;;;;;;;8.53;63.72;98876.59;5032493;28;19960;-83
2023/03/04 03:48:02;;;;;;;;;;;;;;;8.53;64.06;98879.19;5015813;28;19960;-83
2023/03/04 03:50:28;;;;;;;;;;;;;;;8.53;63.83;98888.78;5015075;28;20353;-81
2023/03/04 03:52:53;;;;;;;;;;;;;;;8.53;64.00;98886.16;5014781;28;19917;-81
2023/03/04 03:55:19;;;;;;;;;;;;;;;8.53;64.09;98876.59;5032922;28;19917;-84
2023/03/04 03:57:44;;;;;;;;;;;;;;;8.53;63.93;98873.97;5032741;28;19917;-85
2023/03/04 04:00:10;;;;;;;;;;;;;;;8.54;63.99;98880.00;5003771;28;19924;-85
2023/03/04 04:02:35;;;;;;;;;;;;;;;8.55;63.75;98889.50;5033888;28;20008;-84
2023/03/04 04:05:00;;;;;;;;;;;;;;;8.54;63.83;98877.41;4998981;28;19917;-84
2023/03/04 04:07:25;;;;;;;;;;;;;;;8.54;63.86;98877.41;5032808;28;19923;-84
2023/03/04 04:09:51;;;;;;;;;;;;;;;8.53;63.92;98873.97;4998433;28;19918;-83
2023/03/04 04:12:16;;;;;;;;;;;;;;;8.53;64.11;98875.75;5032442;28;19918;-84
2023/03/04 04:14:42;;;;;;;;;;;;;;;8.54;63.92;98880.00;5014274;28;19925;-85
2023/03/04 04:17:07;;;;;;;;;;;;;;;8.52;63.67;98874.91;5000433;28;19917;-84
2023/03/04 04:19:32;;;;;;;;;;;;;;;8.51;63.99;98873.25;5002133;28;20347;-84
2023/03/04 04:21:58;;;;;;;;;;;;;;;8.51;63.94;98876.69;5001972;28;19924;-85
2023/03/04 04:24:23;;;;;;;;;;;;;;;8.53;63.94;98873.16;5018794;28;20032;-85
2023/03/04 04:26:48;;;;;;;;;;;;;;;8.53;63.78;98873.16;5035903;28;20361;-84
2023/03/04 04:29:14;;;;;;;;;;;;;;;8.55;63.90;98879.91;5018188;28;20463;-84
2023/03/04 04:31:39;;;;;;;;;;;;;;;8.55;63.91;98879.09;5002230;28;20329;-85
2023/03/04 04:34:04;;;;;;;;;;;;;;;8.54;63.84;98870.44;5018202;28;20008;-84
2023/03/04 04:36:30;;;;;;;;;;;;;;;8.55;63.98;98871.28;5036387;28;19921;-84
2023/03/04 04:38:56;;;;;;;;;;;;;;;8.54;63.78;98872.19;5035940;28;20392;-84
2023/03/04 04:41:25;;;;;;;;;;;;;;;8.54;63.87;98869.59;5035673;28;20411;-84
2023/03/04 04:43:51;;;;;;;;;;;;;;;8.54;63.97;98867.84;5001404;28;19929;-84
2023/03/04 04:46:16;;;;;;;;;;;;;;;8.53;64.03;98868.78;5017992;28;19921;-84
2023/03/04 04:48:42;;;;;;;;;;;;;;;8.54;63.93;98877.41;5018330;28;20016;-84
2023/03/04 04:51:07;;;;;;;;;;;;;;;8.53;63.88;98868.78;5017871;28;19924;-84
2023/03/04 04:53:32;;;;;;;;;;;;;;;8.54;63.95;98874.81;5018050;28;19917;-84
2023/03/04 04:55:58;;;;;;;;;;;;;;;8.53;63.73;98879.19;5035393;28;19921;-84
2023/03/04 04:58:23;;;;;;;;;;;;;;;8.53;64.01;98881.78;5035231;28;19925;-84
2023/03/04 05:00:48;;;;;;;;;;;;;;;8.55;63.59;98884.28;5037269;28;20011;-82
2023/03/04 05:03:13;;;;;;;;;;;;;;;8.56;63.82;98878.16;5035258;28;19921;-84
2023/03/04 05:05:39;;;;;;;;;;;;;;;8.56;63.65;98884.19;5035384;28;19917;-84
2023/03/04 05:08:04;;;;;;;;;;;;;;;8.57;63.79;98880.66;5034987;28;19917;-84
2023/03/04 05:10:29;;;;;;;;;;;;;;;8.60;63.63;98887.41;5035052;28;20311;-85
2023/03/04 05:12:55;;;;;;;;;;;;;;;8.62;63.38;98882.97;5017270;28;19932;-85
2023/03/04 05:15:20;;;;;;;;;;;;;;;8.64;63.27;98887.13;5035153;28;19971;-84
2023/03/04 05:17:45;;;;;;;;;;;;;;;8.68;63.30;98890.34;5016720;28;19917;-82
2023/03/04 05:20:11;;;;;;;;;;;;;;;8.69;63.08;98889.41;5035130;28;19917;-83
2023/03/04 05:22:36;;;;;;;;;;;;;;;8.71;62.95;98889.31;5017127;28;19917;-84
2023/03/04 05:25:02;;;;;;;;;;;;;;;8.75;62.97;98902.03;5016816;28;19917;-83
2023/03/04 05:27:27;;;;;;;;;;;;;;;8.78;62.89;98901.81;5034436;28;19917;-83
2023/03/04 05:29:54;;;;;;;;;;;;;;;8.83;63.10;98898.91;5017371;28;19967;-83
2023/03/04 05:32:19;;;;;;;;;;;;;;;8.87;62.62;98897.75;5034598;28;20295;-83
2023/03/04 05:34:45;;;;;;;;;;;;;;;8.94;62.50;98898.22;5016817;28;19917;-84
2023/03/04 05:37:10;;;;;;;;;;;;;;;8.99;62.18;98898.72;5017575;28;19928;-83
2023/03/04 05:39:35;;;;;;;;;;;;;;;9.03;62.39;98908.84;5016555;28;20412;-83
2023/03/04 05:42:00;;;;;;;;;;;;;;;9.10;62.12;98905.81;5017034;28;19921;-83
2023/03/04 05:44:26;;;;;;;;;;;;;;;9.15;61.88;98912.38;5034420;28;19924;-83
2023/03/04 05:46:51;;;;;;;;;;;;;;;9.22;61.70;98900.59;5016697;28;20012;-83
2023/03/04 05:49:16;;;;;;;;;;;;;;;9.29;61.47;98898.41;5034645;28;19917;-84
2023/03/04 05:51:42;;;;;;;;;;;;;;;9.39;61.45;98902.06;5016325;28;19924;-84
2023/03/04 05:54:07;;;;;;;;;;;;;;;9.43;61.20;98905.28;5016777;28;19917;-84
2023/03/04 05:56:32;;;;;;;;;;;;;;;9.53;61.12;98908.09;5035583;28;19917;-84
2023/03/04 05:58:58;;;;;;;;;;;;;;;9.62;60.79;98904.84;5016736;28;20391;-84
2023/03/04 06:01:23;;;;;;;;;;;;;;;9.69;60.67;98907.84;5016549;28;19968;-84
2023/03/04 06:03:49;;;;;;;;;;;;;;;9.77;60.57;98906.38;5016628;28;19952;-84
2023/03/04 06:06:14;;;;;;;;;;;;;;;9.86;60.28;98904.06;5000574;28;20391;-84
2023/03/04 06:08:39;;;;;;;;;;;;;;;9.95;60.29;98916.47;5017381;28;20398;-83
2023/03/04 06:11:05;;;;;;;;;;;;;;;10.02;60.03;98915.06;5000603;28;19968;-84
2023/03/04 06:13:30;;;;;;;;;;;;;;;10.10;59.83;98907.56;5016332;28;19925;-84
2023/03/04 06:15:56;;;;;;;;;;;;;;;10.16;59.83;98911.47;5016774;28;19917;-84
2023/03/04 06:18:21;;;;;;;;;;;;;;;10.22;59.73;98916.25;5016625;28;20394;-83
2023/03/04 06:20:47;;;;;;;;;;;;;;;10.28;59.62;98913.22;5000647;28;19947;-84
2023/03/04 06:23:12;;;;;;;;;;;;;;;10.36;59.52;98912.69;5017032;28;19967;-84
2023/03/04 06:25:37;;;;;;;;;;;;;;;10.46;59.31;98920.69;5000618;28;19996;-84
2023/03/04 06:28:03;;;;;;;;;;;;;;;10.55;58.83;98912.19;5000239;28;19959;-83
2023/03/04 06:30:28;;;;;;;;;;;;;;;10.66;58.83;98920.06;5016140;28;19917;-83
2023/03/04 06:32:54;;;;;;;;;;;;;;;10.79;58.20;98922.59;5000826;28;20380;-85
2023/03/04 06:35:20;;;;;;;;;;;;;;;10.92;57.98;98924.28;5017808;28;19923;-84
2023/03/04 06:37:45;;;;;;;;;;;;;;;11.03;57.78;98932.16;5016758;28;19917;-84
2023/03/04 06:40:11;;;;;;;;;;;;;;;11.13;57.85;98927.91;5033828;28;20381;-84
2023/03/04 06:42:36;;;;;;;;;;;;;;;11.21;57.39;98922.06;5016432;28;20403;-83
2023/03/04 06:45:02;;;;;;;;;;;;;;;11.30;57.39;98926.59;4999621;28;19917;-84
2023/03/04 06:47:27;;;;;;;;;;;;;;;11.38;57.33;98926.84;5016648;28;19917;-85
2023/03/04 06:49:52;;;;;;;;;;;;;;;11.47;57.21;98927.94;5016937;28;20372;-85
2023/03/04 06:52:18;;;;;;;;;;;;;;;11.54;56.85;98933.50;4999922;28;20016;-85
2023/03/04 06:54:43;;;;;;;;;;;;;;;11.59;57.07;98928.75;5016414;28;20079;-85
2023/03/04 06:57:08;;;;;;;;;;;;;;;11.68;56.70;98930.66;5000064;28;19917;-85
2023/03/04 06:59:34;;;;;;;;;;;;;;;11.75;56.48;98931.03;5001076;28;19987;-85
2023/03/04 07:01:59;;;;;;;;;;;;;;;11.85;56.54;98931.97;5001155;28;20424;-85
2023/03/04 07:04:24;;;;;;;;;;;;;;;11.91;56.41;98938.50;5016600;28;19924;-85
2023/03/04 07:06:50;;;;;;;;;;;;;;;12.01;55.85;98936.03;5000278;28;20011;-85
2023/03/04 07:09:15;;;;;;;;;;;;;;;12.11;55.71;98929.09;4999948;28;20392;-84
2023/03/04 07:11:41;;;;;;;;;;;;;;;12.13;55.73;98922.81;5016534;28;19924;-85
2023/03/04 07:14:06;;;;;;;;;;;;;;;12.18;55.33;98934.69;5017166;28;19921;-85
2023/03/04 07:16:31;;;;;;;;;;;;;;;12.23;55.45;98925.50;5034492;28;19924;-86
2023/03/04 07:18:58;;;;;;;;;;;;;;;12.22;55.49;98921.22;5000863;28;19917;-85
2023/03/04 07:21:23;;;;;;;;;;;;;;;12.20;55.60;98925.75;5017091;28;19917;-86
2023/03/04 07:23:49;;;;;;;;;;;;;;;12.22;55.34;98929.06;5036164;28;20009;-85
2023/03/04 07:26:14;;;;;;;;;;;;;;;12.31;55.27;98920.47;5000306;28;19924;-85
2023/03/04 07:28:41;;;;;;;;;;;;;;;12.38;55.08;98922.59;5000006;28;20403;-84
2023/03/04 07:31:07;;;;;;;;;;;;;;;12.43;55.14;98918.69;5017108;28;19917;-85
2023/03/04 07:33:33;;;;;;;;;;;;;;;12.48;54.97;98911.28;5000700;28;19964;-85
2023/03/04 07:35:58;;;;;;;;;;;;;;;12.57;54.48;98919.31;5000171;28;19953;-85
2023/03/04 07:38:24;;;;;;;;;;;;;;;12.63;54.64;98924.06;5000298;28;20368;-86
2023/03/04 07:40:58;;;;;;;;;;;;;;;12.65;54.46;98925.63;5018170;28;19944;-84
2023/03/04 07:43:23;;;;;;;;;;;;;;;12.70;54.20;98922.63;5000203;28;20400;-84
2023/03/04 07:45:49;;;;;;;;;;;;;;;12.71;54.17;98913.78;4999963;28;19921;-85
2023/03/04 07:48:14;;;;;;;;;;;;;;;12.74;54.25;98910.91;5016166;28;19921;-85
2023/03/04 07:50:39;;;;;;;;;;;;;;;12.76;54.29;98916.03;5017727;28;19922;-87
2023/03/04 07:53:04;;;;;;;;;;;;;;;12.80;54.19;98923.50;5004190;28;20003;-86
2023/03/04 07:55:30;;;;;;;;;;;;;;;12.82;54.34;98921.63;5039302;28;19921;-86
2023/03/04 07:57:55;;;;;;;;;;;;;;;12.84;54.20;98918.88;5038601;28;19975;-85
2023/03/04 08:00:21;;;;;;;;;;;;;;;12.90;54.20;98917.50;5037770;28;19967;-85
2023/03/04 08:02:46;;;;;;;;;;;;;;;12.96;54.03;98924.88;5038072;28;20016;-85
2023/03/04 08:05:11;;;;;;;;;;;;;;;13.00;54.16;98921.03;5020878;28;19948;-84
2023/03/04 08:07:37;;;;;;;;;;;;;;;13.05;54.12;98925.91;5005086;28;19960;-85
2023/03/04 08:10:02;;;;;;;;;;;;;;;13.09;54.10;98920.25;5005501;28;20360;-85
2023/03/04 08:12:28;;;;;;;;;;;;;;;13.15;53.92;98922.34;5020109;28;19940;-85
2023/03/04 08:14:53;;;;;;;;;;;;;;;13.19;53.80;98926.41;5037648;28;20000;-85
2023/03/04 08:17:19;;;;;;;;;;;;;;;13.26;54.02;98915.41;5003883;28;19924;-84
2023/03/04 08:19:44;;;;;;;;;;;;;;;13.29;53.76;98913.34;5021020;28;20392;-84
2023/03/04 08:22:09;;;;;;;;;;;;;;;13.34;53.81;98919.03;5004866;28;20336;-86
2023/03/04 08:24:35;;;;;;;;;;;;;;;13.38;53.77;98914.41;5004465;28;19917;-84
2023/03/04 08:27:00;;;;;;;;;;;;;;;13.41;53.78;98914.13;5038773;28;20288;-85
2023/03/04 08:29:26;;;;;;;;;;;;;;;13.42;53.68;98913.16;5003569;28;20316;-84
2023/03/04 08:31:52;;;;;;;;;;;;;;;13.46;53.79;98911.13;5003719;28;19917;-85
2023/03/04 08:34:18;;;;;;;;;;;;;;;13.48;53.71;98917.06;5038425;28;19917;-85
2023/03/04 08:36:43;;;;;;;;;;;;;;;13.53;53.69;98909.63;5021269;28;19924;-85
2023/03/04 08:39:08;;;;;;;;;;;;;;;13.57;53.54;98914.47;5019322;28;19921;-83
2023/03/04 08:41:34;;;;;;;;;;;;;;;13.59;53.48;98911.72;5020505;28;20377;-83
2023/03/04 08:43:59;;;;;;;;;;;;;;;13.61;53.32;98909.78;5003348;28;20384;-85
2023/03/04 08:46:24;;;;;;;;;;;;;;;13.63;53.37;98918.38;5019519;28;20399;-84
2023/03/04 08:48:50;;;;;;;;;;;;;;;13.64;53.23;98909.53;5002906;28;19921;-84
2023/03/04 08:51:15;;;;;;;;;;;;;;;13.66;53.08;98912.00;5002597;28;20427;-85
2023/03/04 08:53:41;;;;;;;;;;;;;;;13.67;53.29;98913.69;5037613;28;19923;-85
2023/03/04 08:56:06;;;;;;;;;;;;;;;13.67;53.09;98913.69;5039240;28;19918;-85
2023/03/04 08:58:32;;;;;;;;;;;;;;;13.69;53.12;98915.19;5021546;28;19917;-85
2023/03/04 09:00:57;;;;;;;;;;;;;;;13.71;53.02;98910.66;5021880;28;19924;-85
2023/03/04 09:03:23;;;;;;;;;;;;;;;13.73;53.03;98911.34;5018939;28;20384;-84
2023/03/04 09:05:48;;;;;;;;;;;;;;;13.81;52.85;98910.69;5019013;28;19917;-84
2023/03/04 09:08:13;;;;;;;;;;;;;;;13.93;52.68;98904.38;5018709;28;19924;-83
2023/03/04 09:10:39;;;;;;;;;;;;;;;14.06;52.38;98905.94;5002149;28;19917;-84
2023/03/04 09:13:05;;;;;;;;;;;;;;;14.19;52.07;98900.44;5018548;28;19917;-83
2023/03/04 09:15:30;;;;;;;;;;;;;;;14.32;52.12;98889.66;5018176;28;20308;-84
2023/03/04 09:17:55;;;;;;;;;;;;;;;14.39;52.02;98893.38;5002662;28;19917;-85
2023/03/04 09:20:22;;;;;;;;;;;;;;;14.46;51.87;98899.75;5036424;28;19918;-83
2023/03/04 09:22:47;;;;;;;;;;;;;;;14.51;51.62;98901.97;5018517;28;20320;-83
2023/03/04 09:25:13;;;;;;;;;;;;;;;14.56;51.69;98889.25;5001773;28;19917;-83
2023/03/04 09:27:38;;;;;;;;;;;;;;;14.62;51.70;98891.34;5002020;28;19917;-84
2023/03/04 09:30:04;;;;;;;;;;;;;;;14.65;51.67;98891.88;5036147;28;20020;-86
2023/03/04 09:32:29;;;;;;;;;;;;;;;14.67;51.51;98891.75;5002120;28;19947;-84
2023/03/04 09:34:55;;;;;;;;;;;;;;;14.64;51.67;98895.50;5002519;28;19979;-85
2023/03/04 09:37:20;;;;;;;;;;;;;;;14.62;51.71;98896.59;5018161;28;19928;-83
2023/03/04 09:39:45;;;;;;;;;;;;;;;14.60;51.68;98894.09;5001521;28;20295;-84
2023/03/04 09:42:13;;;;;;;;;;;;;;;14.59;51.63;98891.59;5001665;28;19921;-81
2023/03/04 09:44:39;;;;;;;;;;;;;;;14.62;51.47;98884.28;5018698;28;19917;-87
2023/03/04 09:47:06;;;;;;;;;;;;;;;14.67;51.54;98883.88;5020006;28;19975;-89
2023/03/04 09:49:31;;;;;;;;;;;;;;;14.74;51.29;98879.72;5036870;28;19925;-83
2023/03/04 09:52:12;;;;;;;;;;;;;;;14.87;51.08;98876.78;5017742;28;20354;-84
2023/03/04 09:54:41;;;;;;;;;;;;;;;14.94;51.10;98875.28;5018006;28;19921;-84
2023/03/04 09:57:21;;;;;;;;;;;;;;;14.94;51.13;98880.53;5018071;28;19962;-85
2023/03/04 09:59:52;;;;;;;;;;;;;;;14.93;50.95;98870.16;5035051;28;20450;-84
2023/03/04 10:02:25;;;;;;;;;;;;;;;14.93;51.04;98868.34;5001002;28;20300;-83
2023/03/04 10:04:52;;;;;;;;;;;;;;;14.92;51.07;98866.69;5017943;28;19970;-87
2023/03/04 10:07:22;;;;;;;;;;;;;;;14.90;50.86;98857.31;5017794;28;19939;-84
2023/03/04 10:09:47;;;;;;;;;;;;;;;14.85;50.97;98855.09;5018316;28;19925;-85
2023/03/04 10:12:14;;;;;;;;;;;;;;;14.81;51.13;98849.28;5035978;28;19924;-73
2023/03/04 10:14:42;;;;;;;;;;;;;;;14.77;51.19;98847.06;5015290;28;19924;-73
2023/03/04 10:17:10;;;;;;;;;;;;;;;14.75;51.20;98843.75;5016159;28;19918;-74
2023/03/04 10:19:36;;;;;;;;;;;;;;;14.67;51.54;98835.75;5033858;28;19968;-74
2023/03/04 10:22:01;;;;;;;;;;;;;;;14.62;51.50;98830.91;5016644;28;20411;-74
2023/03/04 10:24:27;;;;;;;;;;;;;;;14.59;51.52;98836.41;5016230;28;20372;-75
2023/03/04 10:27:04;;;;;;;;;;;;;;;14.56;51.56;98831.44;5015805;28;20008;-74
2023/03/04 10:29:29;;;;;;;;;;;;;;;14.53;51.63;98832.56;5015998;28;19971;-74
2023/03/04 10:31:55;;;;;;;;;;;;;;;14.55;51.69;98827.16;5015444;28;19921;-75
2023/03/04 10:34:21;;;;;;;;;;;;;;;14.55;51.76;98825.38;4999943;28;19964;-75
2023/03/04 10:36:54;;;;;;;;;;;;;;;14.57;51.67;98819.97;5015721;28;19948;-75
2023/03/04 10:39:32;;;;;;;;;;;;;;;14.59;51.78;98813.59;5015447;28;20400;-74
2023/03/04 10:41:59;;;;;;;;;;;;;;;14.65;51.73;98804.38;5015699;28;20016;-74
2023/03/04 10:44:24;;;;;;;;;;;;;;;14.69;51.74;98807.53;5016318;28;19917;-73
2023/03/04 10:46:50;;;;;;;;;;;;;;;14.71;51.55;98801.19;5015712;28;20403;-73
2023/03/04 10:49:16;;;;;;;;;;;;;;;14.76;51.47;98798.94;5016074;28;20020;-74
2023/03/04 10:51:45;;;;;;;;;;;;;;;14.82;51.42;98787.88;5015555;28;19928;-74
2023/03/04 10:54:16;;;;;;;;;;;;;;;14.89;51.21;98789.94;5015655;28;19921;-75
2023/03/04 10:56:44;;;;;;;;;;;;;;;14.97;51.15;98788.22;5033012;28;19917;-74
2023/03/04 10:59:29;;;;;;;;;;;;;;;15.03;50.89;98784.19;5016138;28;20451;-75
2023/03/04 11:01:54;;;;;;;;;;;;;;;15.10;50.90;98781.81;5033382;28;19917;-74
2023/03/04 11:04:22;;;;;;;;;;;;;;;15.15;50.89;98777.78;5015544;28;20365;-75
2023/03/04 11:06:47;;;;;;;;;;;;;;;15.20;50.72;98777.34;5015104;28;19921;-74
2023/03/04 11:09:20;;;;;;;;;;;;;;;15.25;50.76;98767.22;5015211;28;20304;-74
2023/03/04 11:11:45;;;;;;;;;;;;;;;15.31;50.61;98761.38;4999559;28;19917;-75
2023/03/04 11:14:14;;;;;;;;;;;;;;;15.33;50.58;98753.34;5033059;28;19924;-74
2023/03/04 11:16:39;;;;;;;;;;;;;;;15.36;50.50;98750.41;5015012;28;19917;-75
2023/03/04 11:19:05;;;;;;;;;;;;;;;15.38;50.56;98746.66;4998633;28;19924;-74
2023/03/04 11:21:33;;;;;;;;;;;;;;;15.40;50.50;98738.59;5015372;28;19927;-76
2023/03/04 11:23:59;;;;;;;;;;;;;;;15.42;50.41;98736.69;5015052;28;20375;-73
2023/03/04 11:26:29;;;;;;;;;;;;;;;15.44;50.49;98723.38;4998498;28;19961;-73
2023/03/04 11:29:06;;;;;;;;;;;;;;;15.46;50.47;98729.31;5015120;28;19975;-74
2023/03/04 11:31:47;;;;;;;;;;;;;;;15.51;50.50;98719.16;5032611;28;19918;-75
2023/03/04 11:34:23;;;;;;;;;;;;;;;15.55;50.50;98718.72;5014843;28;20380;-74
2023/03/04 11:37:09;;;;;;;;;;;;;;;15.60;50.45;98723.53;5014985;28;19967;-75
2023/03/04 11:39:35;;;;;;;;;;;;;;;15.64;50.38;98724.06;5014921;28;20023;-74
2023/03/04 11:42:02;;;;;;;;;;;;;;;15.67;50.40;98726.38;5014776;28;20003;-75
2023/03/04 11:44:27;;;;;;;;;;;;;;;15.70;50.19;98719.03;5015039;28;19917;-73
2023/03/04 11:46:55;;;;;;;;;;;;;;;15.68;50.14;98710.44;4998116;28;19917;-74
2023/03/04 11:49:20;;;;;;;;;;;;;;;15.70;50.13;98712.94;5014819;28;19960;-74
2023/03/04 11:52:18;;;;;;;;;;;;;;;15.70;50.33;98705.03;5014781;28;20343;-74
2023/03/04 11:54:43;;;;;;;;;;;;;;;15.65;50.13;98705.47;4952393;28;19926;-74
2023/03/04 11:57:13;;;;;;;;;;;;;;;15.62;50.21;98704.97;4952298;29;20294;-74
2023/03/04 11:59:41;;;;;;;;;;;;;;;15.54;50.49;98697.81;4936416;29;19962;-74
2023/03/04 12:02:09;;;;;;;;;;;;;;;15.48;50.63;98701.03;4952150;29;19919;-74
2023/03/04 12:04:34;;;;;;;;;;;;;;;15.41;50.85;98698.19;4952484;29;19997;-74
2023/03/04 12:07:00;;;;;;;;;;;;;;;15.36;50.89;98690.75;4952133;29;20382;-75
2023/03/04 12:09:27;;;;;;;;;;;;;;;15.31;50.85;98695.63;4952337;28;19919;-74
2023/03/04 12:12:05;;;;;;;;;;;;;;;15.26;50.78;98692.63;4935985;29;19978;-74
2023/03/04 12:14:40;;;;;;;;;;;;;;;15.20;50.89;98687.97;4952308;28;20356;-74
2023/03/04 12:17:09;;;;;;;;;;;;;;;15.15;51.11;98693.66;4936463;29;19918;-74
2023/03/04 12:19:39;;;;;;;;;;;;;;;15.11;51.18;98687.03;4936529;29;20411;-75
2023/03/04 12:22:16;;;;;;;;;;;;;;;15.09;51.14;98685.53;4936060;29;19922;-74
2023/03/04 12:25:00;;;;;;;;;;;;;;;15.04;51.20;98685.97;4952302;29;19923;-76
2023/03/04 12:27:40;;;;;;;;;;;;;;;15.04;51.08;98680.72;4952185;28;19930;-74
2023/03/04 12:30:12;;;;;;;;;;;;;;;15.03;51.27;98671.16;4984875;28;19917;-74
2023/03/04 12:32:46;;;;;;;;;;;;;;;15.06;51.24;98670.06;5032094;28;19936;-75
2023/03/04 12:35:40;;;;;;;;;;;;;;;15.12;51.13;98664.22;5014730;28;19920;-74
2023/03/04 12:38:08;;;;;;;;;;;;;;;15.19;50.87;98668.69;4938484;29;19929;-75
2023/03/04 12:40:42;;;;;;;;;;;;;;;15.27;50.98;98669.78;4955394;29;20453;-77
2023/03/04 12:43:26;;;;;;;;;;;;;;;15.34;50.90;98668.22;4955930;28;19929;-74
2023/03/04 12:45:57;;;;;;;;;;;;;;;15.43;50.83;98658.59;4955585;29;19919;-76
2023/03/04 12:48:22;;;;;;;;;;;;;;;15.48;50.56;98658.97;4939233;29;19958;-75
2023/03/04 12:51:06;;;;;;;;;;;;;;;15.56;50.51;98665.13;4955293;29;20441;-75